createdAt,value
2022-11-24T00:02:25.910Z,60.10
2022-11-24T00:05:20.394Z,60.30
2022-11-24T00:08:14.902Z,60.80
2022-11-24T00:11:17.849Z,60.50
2022-11-24T00:14:12.977Z,60.90
2022-11-24T00:17:07.471Z,60.80
2022-11-24T00:20:01.923Z,59.70
2022-11-24T00:22:57.215Z,60.40
2022-11-24T00:25:51.594Z,60.00
2022-11-24T00:28:48.510Z,58.30
2022-11-24T00:31:44.090Z,57.30
2022-11-24T00:34:38.525Z,56.80
2022-11-24T00:37:32.934Z,57.30
2022-11-24T00:40:30.813Z,56.40
2022-11-24T00:43:28.188Z,56.90
2022-11-24T00:46:23.457Z,56.80
2022-11-24T00:49:18.101Z,56.60
2022-11-24T00:52:12.479Z,56.30
2022-11-24T00:55:07.130Z,56.60
2022-11-24T00:58:01.491Z,56.40
2022-11-24T01:00:56.428Z,55.00
2022-11-24T01:03:52.399Z,55.00
2022-11-24T01:06:47.362Z,55.70
2022-11-24T01:09:44.867Z,55.70
2022-11-24T01:12:39.823Z,56.00
2022-11-24T01:15:37.987Z,54.80
2022-11-24T01:21:10.139Z,54.70
2022-11-24T01:24:04.882Z,53.30
2022-11-24T01:26:59.341Z,52.60
2022-11-24T01:29:53.706Z,51.10
2022-11-24T01:32:48.106Z,51.00
2022-11-24T01:35:42.438Z,51.50
2022-11-24T01:38:37.148Z,51.10
2022-11-24T01:41:32.597Z,51.20
2022-11-24T01:44:30.415Z,51.10
2022-11-24T01:47:37.887Z,50.20
2022-11-24T01:50:32.641Z,49.90
2022-11-24T01:53:27.374Z,50.10
2022-11-24T01:56:22.578Z,50.40
2022-11-24T01:59:19.722Z,50.30
2022-11-24T02:02:14.059Z,48.00
2022-11-24T02:05:13.957Z,50.20
2022-11-24T02:08:16.824Z,50.40
2022-11-24T02:11:11.154Z,51.00
2022-11-24T02:14:08.863Z,49.70
2022-11-24T02:17:03.200Z,48.50
2022-11-24T02:20:09.828Z,48.80
2022-11-24T02:23:20.308Z,48.80
2022-11-24T02:26:46.245Z,49.00
2022-11-24T02:29:41.732Z,47.50
2022-11-24T02:32:36.521Z,49.80
2022-11-24T02:35:31.373Z,47.80
2022-11-24T02:38:34.082Z,49.00
2022-11-24T02:41:30.699Z,47.50
2022-11-24T02:44:30.428Z,46.30
2022-11-24T02:47:25.011Z,45.70
2022-11-24T02:50:19.518Z,45.00
2022-11-24T02:53:14.063Z,45.80
2022-11-24T02:56:08.980Z,46.70
2022-11-24T02:59:03.482Z,47.70
2022-11-24T03:01:58.022Z,45.30
2022-11-24T03:04:52.455Z,44.40
2022-11-24T03:07:47.037Z,44.90
2022-11-24T03:10:41.672Z,45.50
2022-11-24T03:13:36.188Z,44.70
2022-11-24T03:16:31.339Z,47.10
2022-11-24T03:19:25.702Z,47.40
2022-11-24T03:22:20.091Z,48.50
2022-11-24T03:25:14.503Z,48.80
2022-11-24T03:28:08.977Z,48.90
2022-11-24T03:31:04.006Z,47.90
2022-11-24T03:33:58.467Z,48.10
2022-11-24T03:36:52.971Z,48.90
2022-11-24T03:39:47.753Z,49.90
2022-11-24T03:42:42.944Z,50.20
2022-11-24T03:45:45.944Z,50.20
2022-11-24T03:48:41.463Z,50.80
2022-11-24T03:51:35.944Z,51.00
2022-11-24T03:54:30.389Z,50.00
2022-11-24T03:57:24.850Z,47.80
2022-11-24T04:00:19.844Z,47.50
2022-11-24T04:03:14.313Z,46.60
2022-11-24T04:06:08.985Z,46.90
2022-11-24T04:09:03.381Z,46.90
2022-11-24T04:12:15.846Z,44.10
2022-11-24T04:15:10.564Z,45.80
2022-11-24T04:18:05.067Z,44.20
2022-11-24T04:20:59.548Z,44.40
2022-11-24T04:23:53.945Z,43.80
2022-11-24T04:26:48.327Z,43.70
2022-11-24T04:29:42.739Z,41.20
2022-11-24T04:32:37.842Z,42.10
2022-11-24T04:35:32.331Z,41.40
2022-11-24T04:39:24.035Z,43.20
2022-11-24T04:41:41.133Z,42.70
2022-11-24T04:44:35.818Z,41.70
2022-11-24T04:47:30.731Z,40.80
2022-11-24T04:50:25.290Z,42.10
2022-11-24T04:53:19.971Z,41.50
2022-11-24T04:56:14.479Z,41.40
2022-11-24T04:59:08.972Z,42.50
2022-11-24T05:02:03.582Z,42.10
2022-11-24T05:04:58.106Z,42.40
2022-11-24T05:07:52.631Z,41.90
2022-11-24T05:10:47.182Z,42.10
2022-11-24T05:13:41.635Z,42.10
2022-11-24T05:16:37.235Z,41.60
2022-11-24T05:19:32.469Z,41.60
2022-11-24T05:22:27.497Z,42.90
2022-11-24T05:25:21.957Z,42.50
2022-11-24T05:28:16.625Z,42.70
2022-11-24T05:31:11.318Z,41.60
2022-11-24T05:34:05.756Z,41.70
2022-11-24T05:37:04.242Z,41.00
2022-11-24T05:39:59.048Z,41.70
2022-11-24T05:42:53.602Z,41.70
2022-11-24T05:45:48.434Z,42.40
2022-11-24T05:48:42.860Z,42.80
2022-11-24T05:51:37.446Z,42.90
2022-11-24T05:54:32.111Z,43.30
2022-11-24T05:57:26.914Z,43.20
2022-11-24T06:00:21.477Z,42.20
2022-11-24T06:03:16.037Z,41.30
2022-11-24T06:06:10.610Z,41.70
2022-11-24T06:09:05.882Z,42.30
2022-11-24T06:12:00.313Z,41.90
2022-11-24T06:14:54.780Z,41.80
2022-11-24T06:17:58.316Z,40.60
2022-11-24T06:21:09.740Z,42.10
2022-11-24T06:24:05.152Z,40.60
2022-11-24T06:26:59.585Z,41.40
2022-11-24T06:29:54.484Z,42.40
2022-11-24T06:32:50.182Z,42.40
2022-11-24T06:35:44.656Z,40.90
2022-11-24T06:38:39.472Z,41.40
2022-11-24T06:41:34.240Z,40.90
2022-11-24T06:44:28.775Z,41.00
2022-11-24T06:47:23.257Z,41.40
2022-11-24T06:50:17.928Z,39.10
2022-11-24T06:53:13.848Z,40.60
2022-11-24T06:56:15.682Z,38.70
2022-11-24T06:59:21.193Z,39.70
2022-11-24T07:02:15.548Z,39.60
2022-11-24T07:05:10.184Z,38.40
2022-11-24T07:08:04.585Z,37.90
2022-11-24T07:10:59.090Z,39.10
2022-11-24T07:13:59.465Z,38.90
2022-11-24T07:16:54.606Z,38.80
2022-11-24T07:19:49.185Z,38.80
2022-11-24T07:22:43.662Z,39.00
2022-11-24T07:25:38.169Z,38.50
2022-11-24T07:28:33.009Z,39.30
2022-11-24T07:31:27.466Z,39.20
2022-11-24T07:34:21.907Z,39.60
2022-11-24T07:37:16.443Z,38.80
2022-11-24T07:40:11.711Z,38.60
2022-11-24T07:43:06.111Z,37.90
2022-11-24T07:46:01.452Z,38.30
2022-11-24T07:48:56.031Z,39.10
2022-11-24T07:51:50.534Z,39.10
2022-11-24T07:54:44.973Z,40.10
2022-11-24T07:57:39.510Z,40.80
2022-11-24T08:00:34.057Z,40.80
2022-11-24T08:03:28.868Z,41.20
2022-11-24T08:06:26.558Z,41.40
2022-11-24T08:09:23.406Z,41.70
2022-11-24T08:12:26.972Z,41.80
2022-11-24T08:15:21.500Z,42.00
2022-11-24T08:18:16.007Z,42.50
2022-11-24T08:21:15.118Z,42.70
2022-11-24T08:24:10.319Z,44.20
2022-11-24T08:27:04.837Z,45.00
2022-11-24T08:29:59.361Z,45.60
2022-11-24T08:32:53.865Z,47.50
2022-11-24T08:35:48.335Z,49.20
2022-11-24T08:38:42.772Z,49.60
2022-11-24T08:41:37.198Z,50.10
2022-11-24T08:44:31.530Z,50.10
2022-11-24T08:47:26.052Z,50.60
2022-11-24T08:50:20.484Z,51.00
2022-11-24T08:53:14.879Z,51.40
2022-11-24T08:56:10.660Z,51.80
2022-11-24T08:59:05.692Z,51.90
2022-11-24T09:02:00.402Z,52.30
2022-11-24T09:04:54.926Z,52.50
2022-11-24T09:07:49.344Z,53.00
2022-11-24T09:10:44.385Z,53.40
2022-11-24T09:13:39.913Z,53.50
2022-11-24T09:16:34.562Z,53.90
2022-11-24T09:19:28.974Z,54.20
2022-11-24T09:22:23.570Z,54.30
2022-11-24T09:25:18.554Z,54.50
2022-11-24T09:28:13.157Z,54.90
2022-11-24T09:31:09.753Z,55.10
2022-11-24T09:34:06.418Z,55.50
2022-11-24T09:37:00.775Z,55.70
2022-11-24T09:39:55.460Z,55.80
2022-11-24T09:43:02.938Z,55.90
2022-11-24T09:46:34.706Z,56.80
2022-11-24T09:49:51.623Z,56.20
2022-11-24T09:53:02.758Z,56.50
2022-11-24T09:56:07.448Z,56.60
2022-11-24T09:59:24.309Z,56.70
2022-11-24T10:02:18.679Z,56.70
2022-11-24T10:05:14.897Z,56.80
2022-11-24T10:08:24.722Z,57.00
2022-11-24T10:11:44.058Z,57.20
2022-11-24T10:14:58.990Z,57.30
2022-11-24T10:18:16.980Z,57.40
2022-11-24T10:21:23.642Z,57.60
2022-11-24T10:24:29.849Z,57.50
2022-11-24T10:27:47.297Z,57.40
2022-11-24T10:30:41.953Z,57.30
2022-11-24T10:33:37.011Z,57.40
2022-11-24T10:36:52.594Z,57.50
2022-11-24T10:40:21.309Z,58.00
2022-11-24T10:43:24.848Z,57.50
2022-11-24T10:46:28.047Z,57.50
2022-11-24T10:49:31.101Z,57.70
2022-11-24T10:52:28.367Z,57.70
2022-11-24T10:55:22.337Z,57.50
2022-11-24T10:58:23.142Z,57.70
2022-11-24T11:01:17.668Z,57.60
2022-11-24T11:04:23.302Z,57.60
2022-11-24T11:07:24.144Z,57.80
2022-11-24T11:10:26.627Z,57.70
2022-11-24T11:13:32.471Z,57.80
2022-11-24T11:16:39.305Z,57.80
2022-11-24T11:19:52.400Z,57.90
2022-11-24T11:22:51.020Z,57.90
2022-11-24T11:25:45.526Z,57.80
2022-11-24T11:28:40.456Z,57.60
2022-11-24T11:31:35.491Z,57.90
2022-11-24T11:34:38.552Z,58.10
2022-11-24T11:37:35.312Z,58.30
2022-11-24T11:40:32.262Z,58.40
2022-11-24T11:43:36.778Z,58.50
2022-11-24T11:46:34.525Z,58.50
2022-11-24T11:49:29.478Z,58.70
2022-11-24T11:52:53.309Z,58.50
2022-11-24T11:56:05.053Z,58.30
2022-11-24T11:59:17.919Z,58.30
2022-11-24T12:02:38.611Z,58.40
2022-11-24T12:05:42.714Z,58.40
2022-11-24T12:09:19.832Z,58.60
2022-11-24T12:12:45.226Z,58.70
2022-11-24T12:15:53.621Z,58.70
2022-11-24T12:19:16.833Z,58.80
2022-11-24T12:22:20.688Z,58.90
2022-11-24T12:25:59.775Z,59.10
2022-11-24T12:29:03.316Z,59.20
2022-11-24T12:32:07.646Z,59.50
2022-11-24T12:35:29.961Z,59.30
2022-11-24T12:38:57.167Z,59.60
2022-11-24T12:42:01.912Z,59.60
2022-11-24T12:45:05.469Z,59.60
2022-11-24T12:48:12.626Z,59.70
2022-11-24T12:51:13.012Z,59.80
2022-11-24T12:54:15.016Z,59.60
2022-11-24T12:57:18.983Z,59.80
2022-11-24T13:00:23.749Z,59.90
2022-11-24T13:03:38.153Z,59.70
2022-11-24T13:06:56.957Z,59.80
2022-11-24T13:10:40.468Z,60.60
2022-11-24T13:14:14.853Z,60.10
2022-11-24T13:17:47.498Z,60.30
2022-11-24T13:20:48.930Z,60.40
2022-11-24T13:23:43.352Z,60.40
2022-11-24T13:26:41.698Z,60.30
2022-11-24T13:29:38.437Z,60.20
2022-11-24T13:32:35.839Z,60.30
2022-11-24T13:35:30.982Z,60.20
2022-11-24T13:38:54.537Z,60.20
2022-11-24T13:42:01.528Z,60.30
2022-11-24T13:44:58.802Z,60.50
2022-11-24T13:47:52.619Z,60.30
2022-11-24T13:50:57.228Z,60.20
2022-11-24T13:53:52.854Z,60.50
2022-11-24T13:56:47.269Z,60.80
2022-11-24T13:59:41.634Z,60.90
2022-11-24T14:02:36.246Z,61.10
2022-11-24T14:05:42.343Z,61.30
2022-11-24T14:08:40.004Z,61.50
2022-11-24T14:11:34.593Z,61.60
2022-11-24T14:14:29.870Z,61.50
2022-11-24T14:17:29.702Z,61.70
2022-11-24T14:20:30.313Z,61.70
2022-11-24T14:23:25.152Z,61.70
2022-11-24T14:26:33.172Z,61.60
2022-11-24T14:29:34.176Z,61.50
2022-11-24T14:32:28.849Z,61.60
2022-11-24T14:35:34.598Z,61.60
2022-11-24T14:38:29.380Z,61.50
2022-11-24T14:41:27.282Z,61.70
2022-11-24T14:44:47.606Z,61.50
2022-11-24T14:47:47.387Z,61.30
2022-11-24T14:50:42.164Z,61.20
2022-11-24T14:53:37.182Z,61.00
2022-11-24T14:56:35.829Z,61.10
2022-11-24T14:59:32.321Z,61.40
2022-11-24T15:03:03.891Z,61.80
2022-11-24T15:06:01.734Z,61.90
2022-11-24T15:08:56.272Z,62.20
2022-11-24T15:11:50.962Z,62.40
2022-11-24T15:14:56.241Z,62.60
2022-11-24T15:17:56.632Z,62.90
2022-11-24T15:20:51.024Z,63.40
2022-11-24T15:24:05.177Z,63.80
2022-11-24T15:27:03.113Z,64.50
2022-11-24T15:29:57.471Z,64.70
2022-11-24T15:32:57.281Z,64.90
2022-11-24T15:35:51.836Z,65.20
2022-11-24T15:38:46.278Z,65.40
2022-11-24T15:41:42.103Z,65.60
2022-11-24T15:44:36.811Z,66.10
2022-11-24T15:47:31.410Z,66.30
2022-11-24T15:50:25.816Z,66.50
2022-11-24T15:53:25.134Z,66.90
2022-11-24T15:56:40.317Z,66.90
2022-11-24T15:59:35.129Z,67.10
2022-11-24T16:02:29.977Z,67.10
2022-11-24T16:05:24.357Z,67.80
2022-11-24T16:08:18.898Z,67.60
2022-11-24T16:11:13.355Z,67.90
2022-11-24T16:14:07.894Z,68.00
2022-11-24T16:17:02.465Z,68.40
2022-11-24T16:20:00.753Z,68.90
2022-11-24T16:22:56.507Z,69.00
2022-11-24T16:25:51.044Z,69.30
2022-11-24T16:28:46.903Z,69.10
2022-11-24T16:31:41.358Z,69.40
2022-11-24T16:34:35.908Z,69.70
2022-11-24T16:37:30.635Z,69.90
2022-11-24T16:40:25.070Z,70.60
2022-11-24T16:43:19.815Z,70.40
2022-11-24T16:46:19.560Z,70.60
2022-11-24T16:49:14.312Z,70.80
2022-11-24T16:52:09.743Z,70.80
2022-11-24T16:55:05.011Z,71.10
2022-11-24T16:57:59.681Z,71.40
2022-11-24T17:00:54.181Z,71.00
2022-11-24T17:03:48.646Z,71.30
2022-11-24T17:06:43.124Z,71.70
2022-11-24T17:09:40.505Z,72.10
2022-11-24T17:12:39.040Z,72.50
2022-11-24T17:15:37.818Z,72.30
2022-11-24T17:18:36.098Z,72.10
2022-11-24T17:21:30.578Z,72.70
2022-11-24T17:24:25.047Z,72.70
2022-11-24T17:27:19.470Z,72.80
2022-11-24T17:30:14.263Z,73.20
2022-11-24T17:33:09.045Z,73.30
2022-11-24T17:36:07.552Z,73.40
2022-11-24T17:39:04.443Z,73.90
2022-11-24T17:41:59.225Z,74.40
2022-11-24T17:44:53.760Z,74.60
2022-11-24T17:47:48.186Z,75.00
2022-11-24T17:50:42.598Z,75.30
2022-11-24T17:53:40.546Z,75.40
2022-11-24T17:56:34.873Z,75.40
2022-11-24T17:59:29.305Z,75.50
2022-11-24T18:02:23.774Z,76.20
2022-11-24T18:05:18.272Z,76.60
2022-11-24T18:08:13.380Z,76.50
2022-11-24T18:11:08.604Z,77.00
2022-11-24T18:14:05.190Z,77.20
2022-11-24T18:16:59.633Z,77.80
2022-11-24T18:19:54.002Z,78.10
2022-11-24T18:23:05.143Z,78.10
2022-11-24T18:26:02.675Z,77.80
2022-11-24T18:28:57.220Z,78.00
2022-11-24T18:31:51.623Z,77.90
2022-11-24T18:34:46.039Z,77.90
2022-11-24T18:37:45.235Z,77.80
2022-11-24T18:40:43.012Z,77.40
2022-11-24T18:43:39.482Z,78.00
2022-11-24T18:46:33.994Z,77.80
2022-11-24T18:49:28.401Z,78.00
2022-11-24T18:52:22.988Z,78.20
2022-11-24T18:55:17.501Z,78.10
2022-11-24T18:58:11.981Z,78.70
2022-11-24T19:01:09.800Z,78.90
2022-11-24T19:04:04.917Z,79.00
2022-11-24T19:06:59.313Z,78.90
2022-11-24T19:09:53.832Z,79.10
2022-11-24T19:12:48.248Z,79.10
2022-11-24T19:15:42.663Z,79.20
2022-11-24T19:18:36.989Z,79.80
2022-11-24T19:21:34.560Z,79.60
2022-11-24T19:24:29.168Z,80.10
2022-11-24T19:27:23.652Z,80.70
2022-11-24T19:30:18.967Z,80.70
2022-11-24T19:33:13.765Z,80.70
2022-11-24T19:36:14.972Z,81.10
2022-11-24T19:39:09.521Z,81.10
2022-11-24T19:42:05.949Z,81.10
2022-11-24T19:45:00.635Z,81.50
2022-11-24T19:47:54.961Z,81.10
2022-11-24T19:50:49.360Z,81.20
2022-11-24T19:53:44.426Z,81.20
2022-11-24T19:56:39.213Z,81.80
2022-11-24T19:59:33.563Z,82.20
2022-11-24T20:02:29.660Z,82.60
2022-11-24T20:05:24.052Z,82.30
2022-11-24T20:08:18.462Z,82.40
2022-11-24T20:11:18.238Z,82.50
2022-11-24T20:14:14.729Z,82.70
2022-11-24T20:17:09.103Z,82.90
2022-11-24T20:20:03.580Z,82.70
2022-11-24T20:22:57.986Z,82.80
2022-11-24T20:25:52.518Z,82.80
2022-11-24T20:28:46.961Z,82.50
2022-11-24T20:31:47.189Z,82.70
2022-11-24T20:34:41.674Z,81.90
2022-11-24T20:37:38.413Z,81.40
2022-11-24T20:40:32.792Z,81.10
2022-11-24T20:43:27.242Z,80.50
2022-11-24T20:46:33.643Z,79.80
2022-11-24T20:49:29.252Z,78.50
2022-11-24T20:52:23.707Z,77.70
2022-11-24T20:55:18.277Z,77.40
2022-11-24T20:58:12.775Z,75.90
2022-11-24T21:01:08.282Z,74.60
2022-11-24T21:04:04.266Z,73.60
2022-11-24T21:06:58.949Z,73.30
2022-11-24T21:09:53.449Z,72.20
2022-11-24T21:12:47.839Z,72.40
2022-11-24T21:15:42.321Z,70.10
2022-11-24T21:18:36.715Z,70.10
2022-11-24T21:21:35.683Z,69.30
2022-11-24T21:24:32.288Z,68.00
2022-11-24T21:27:28.315Z,68.40
2022-11-24T21:30:22.737Z,67.60
2022-11-24T21:33:18.149Z,66.50
2022-11-24T21:36:12.814Z,65.90
2022-11-24T21:39:07.299Z,65.80
2022-11-24T21:42:01.886Z,65.70
2022-11-24T21:44:56.305Z,65.40
2022-11-24T21:47:51.251Z,64.40
2022-11-24T21:50:45.582Z,63.10
2022-11-24T21:53:40.878Z,62.10
2022-11-24T21:56:35.233Z,62.50
2022-11-24T21:59:29.839Z,63.70
2022-11-24T22:02:24.425Z,62.00
2022-11-24T22:05:19.095Z,60.00
2022-11-24T22:08:13.463Z,59.60
2022-11-24T22:11:13.796Z,59.00
2022-11-24T22:14:09.975Z,58.70
2022-11-24T22:17:04.334Z,57.40
2022-11-24T22:19:58.713Z,55.10
2022-11-24T22:22:53.918Z,53.40
2022-11-24T22:25:48.328Z,53.10
2022-11-24T22:28:43.345Z,51.00
2022-11-24T22:31:37.833Z,50.60
2022-11-24T22:34:32.590Z,49.80
2022-11-24T22:37:27.114Z,50.30
2022-11-24T22:40:21.758Z,49.60
2022-11-24T22:43:20.200Z,49.70
2022-11-24T22:46:20.216Z,49.00
2022-11-24T22:49:14.764Z,47.70
2022-11-24T22:52:09.204Z,46.90
2022-11-24T22:55:03.529Z,45.60
2022-11-24T22:57:58.113Z,47.00
2022-11-24T23:00:52.489Z,46.60
2022-11-24T23:03:48.005Z,46.20
2022-11-24T23:06:43.250Z,47.00
2022-11-24T23:09:37.660Z,46.60
2022-11-24T23:12:32.112Z,45.80
2022-11-24T23:15:26.601Z,44.70
2022-11-24T23:18:20.941Z,44.90
2022-11-24T23:21:18.141Z,43.40
2022-11-24T23:24:13.036Z,44.50
2022-11-24T23:27:07.740Z,45.10
2022-11-24T23:30:02.181Z,43.10
2022-11-24T23:32:56.840Z,43.20
2022-11-24T23:35:51.315Z,41.90
2022-11-24T23:38:46.830Z,42.40
2022-11-24T23:41:41.490Z,42.00
2022-11-24T23:44:37.415Z,42.80
2022-11-24T23:47:32.125Z,41.90
2022-11-24T23:50:26.492Z,42.80
2022-11-24T23:53:21.005Z,42.20
2022-11-24T23:56:20.869Z,41.10
2022-11-24T23:59:15.398Z,42.00
